createdAt,value
2019-02-09T00:01:44.239Z,14.23
2019-02-09T00:04:13.939Z,19.23
2019-02-09T00:06:44.703Z,7.60
2019-02-09T00:09:14.410Z,14.75
2019-02-09T00:11:44.149Z,10.03
2019-02-09T00:14:13.828Z,8.18
2019-02-09T00:16:43.518Z,6.75
2019-02-09T00:19:13.272Z,6.67
2019-02-09T00:21:42.933Z,5.50
2019-02-09T00:24:12.611Z,5.33
2019-02-09T00:26:42.309Z,5.22
2019-02-09T00:29:12.060Z,6.60
2019-02-09T00:31:41.833Z,5.45
2019-02-09T00:34:11.494Z,7.75
2019-02-09T00:36:41.180Z,5.20
2019-02-09T00:39:10.906Z,4.70
2019-02-09T00:41:40.609Z,4.70
2019-02-09T00:44:10.337Z,4.08
2019-02-09T00:46:40.787Z,4.60
2019-02-09T00:49:10.528Z,4.10
2019-02-09T00:51:40.285Z,4.30
2019-02-09T00:54:11.104Z,3.92
2019-02-09T00:56:40.851Z,4.83
2019-02-09T00:59:10.628Z,4.05
2019-02-09T01:01:40.307Z,4.15
2019-02-09T01:04:09.972Z,3.80
2019-02-09T01:06:39.651Z,4.15
2019-02-09T01:09:11.431Z,4.05
2019-02-09T01:11:41.188Z,3.83
2019-02-09T01:14:10.942Z,3.05
2019-02-09T01:16:40.699Z,3.77
2019-02-09T01:19:10.460Z,3.62
2019-02-09T01:21:40.195Z,3.47
2019-02-09T01:24:09.880Z,4.15
2019-02-09T01:26:40.064Z,3.58
2019-02-09T01:29:09.816Z,3.83
2019-02-09T01:31:39.547Z,3.83
2019-02-09T01:34:09.211Z,3.83
2019-02-09T01:36:38.972Z,3.65
2019-02-09T01:39:08.637Z,4.35
2019-02-09T01:41:38.360Z,4.87
2019-02-09T01:44:08.103Z,5.25
2019-02-09T01:46:37.878Z,4.15
2019-02-09T01:49:07.545Z,6.42
2019-02-09T01:51:37.235Z,6.08
2019-02-09T01:54:07.009Z,5.28
2019-02-09T01:56:36.747Z,6.10
2019-02-09T01:59:06.428Z,4.95
2019-02-09T02:01:36.123Z,5.80
2019-02-09T02:04:05.944Z,5.72
2019-02-09T02:06:35.606Z,4.10
2019-02-09T02:09:06.599Z,4.55
2019-02-09T02:11:36.293Z,6.10
2019-02-09T02:14:06.068Z,5.20
2019-02-09T02:16:36.783Z,4.10
2019-02-09T02:19:06.464Z,3.83
2019-02-09T02:21:36.199Z,4.12
2019-02-09T02:24:05.887Z,3.40
2019-02-09T02:26:35.621Z,3.40
2019-02-09T02:29:05.375Z,3.42
2019-02-09T02:31:35.125Z,3.58
2019-02-09T02:34:04.880Z,3.35
2019-02-09T02:36:35.741Z,3.75
2019-02-09T02:39:08.703Z,3.60
2019-02-09T02:41:51.275Z,3.52
2019-02-09T02:44:21.016Z,4.65
2019-02-09T02:46:50.706Z,3.77
2019-02-09T02:49:20.578Z,5.55
2019-02-09T02:51:50.318Z,6.70
2019-02-09T02:54:20.118Z,4.80
2019-02-09T02:56:49.865Z,5.33
2019-02-09T02:59:19.622Z,7.50
2019-02-09T03:01:49.388Z,7.97
2019-02-09T03:04:19.120Z,5.03
2019-02-09T03:06:49.860Z,4.08
2019-02-09T03:09:19.596Z,4.72
2019-02-09T03:11:49.274Z,6.25
2019-02-09T03:14:18.953Z,6.58
2019-02-09T03:16:48.713Z,5.65
2019-02-09T03:19:19.256Z,5.15
2019-02-09T03:21:49.003Z,5.85
2019-02-09T03:24:18.696Z,5.10
2019-02-09T03:26:48.382Z,5.45
2019-02-09T03:29:18.209Z,6.78
2019-02-09T03:31:47.910Z,6.80
2019-02-09T03:34:17.653Z,5.92
2019-02-09T03:36:47.444Z,7.25
2019-02-09T03:39:17.173Z,6.70
2019-02-09T03:41:46.859Z,8.00
2019-02-09T03:44:16.551Z,5.60
2019-02-09T03:46:46.293Z,5.87
2019-02-09T03:49:16.061Z,4.42
2019-02-09T03:51:45.820Z,4.47
2019-02-09T03:54:15.609Z,4.50
2019-02-09T03:56:45.360Z,4.17
2019-02-09T03:59:15.046Z,4.00
2019-02-09T04:01:44.810Z,4.42
2019-02-09T04:04:14.567Z,4.12
2019-02-09T04:06:44.256Z,3.80
2019-02-09T04:09:14.008Z,4.17
2019-02-09T04:11:43.775Z,3.90
2019-02-09T04:14:13.440Z,4.50
2019-02-09T04:16:43.235Z,4.22
2019-02-09T04:19:12.987Z,4.72
2019-02-09T04:21:44.381Z,4.08
2019-02-09T04:24:14.034Z,4.47
2019-02-09T04:26:43.737Z,3.77
2019-02-09T04:29:13.559Z,4.10
2019-02-09T04:31:43.369Z,4.00
2019-02-09T04:34:13.127Z,4.37
2019-02-09T04:36:42.854Z,5.17
2019-02-09T04:39:12.543Z,4.85
2019-02-09T04:41:42.225Z,4.65
2019-02-09T04:44:12.792Z,4.55
2019-02-09T04:46:42.527Z,4.60
2019-02-09T04:49:12.282Z,4.33
2019-02-09T04:51:42.018Z,4.07
2019-02-09T04:54:11.772Z,4.00
2019-02-09T04:56:41.541Z,3.83
2019-02-09T04:59:11.249Z,3.80
2019-02-09T05:01:40.923Z,3.90
2019-02-09T05:04:10.587Z,4.30
2019-02-09T05:06:40.284Z,4.33
2019-02-09T05:09:10.011Z,4.60
2019-02-09T05:11:39.704Z,3.37
2019-02-09T05:14:09.370Z,3.80
2019-02-09T05:16:39.142Z,4.03
2019-02-09T05:19:08.898Z,4.00
2019-02-09T05:21:38.547Z,3.53
2019-02-09T05:24:08.227Z,3.43
2019-02-09T05:26:37.886Z,3.37
2019-02-09T05:29:07.567Z,3.90
2019-02-09T05:31:40.510Z,3.67
2019-02-09T05:34:10.260Z,3.30
2019-02-09T05:36:39.934Z,3.60
2019-02-09T05:39:12.269Z,3.67
2019-02-09T05:41:42.046Z,3.70
2019-02-09T05:44:11.767Z,4.27
2019-02-09T05:46:41.458Z,4.53
2019-02-09T05:49:11.136Z,5.07
2019-02-09T05:51:40.910Z,4.13
2019-02-09T05:54:10.637Z,5.60
2019-02-09T05:56:40.312Z,5.53
2019-02-09T05:59:12.857Z,5.40
2019-02-09T06:01:42.628Z,5.60
2019-02-09T06:04:13.259Z,4.60
2019-02-09T06:06:42.952Z,4.63
2019-02-09T06:09:12.680Z,4.20
2019-02-09T06:11:42.392Z,3.77
2019-02-09T06:14:13.286Z,4.60
2019-02-09T06:16:43.049Z,4.20
2019-02-09T06:19:12.728Z,4.10
2019-02-09T06:21:43.554Z,4.13
2019-02-09T06:24:13.331Z,4.13
2019-02-09T06:26:43.090Z,3.67
2019-02-09T06:29:12.845Z,3.50
2019-02-09T06:31:42.586Z,3.43
2019-02-09T06:34:12.244Z,2.73
2019-02-09T06:36:42.012Z,3.17
2019-02-09T06:39:11.740Z,2.80
2019-02-09T06:41:41.492Z,2.73
2019-02-09T06:44:11.274Z,3.27
2019-02-09T06:46:40.994Z,2.70
2019-02-09T06:49:10.678Z,3.03
2019-02-09T06:51:40.336Z,3.17
2019-02-09T06:54:10.036Z,3.00
2019-02-09T06:56:39.782Z,3.20
2019-02-09T06:59:09.541Z,3.03
2019-02-09T07:01:39.310Z,3.47
2019-02-09T07:04:08.977Z,3.13
2019-02-09T07:06:38.732Z,3.47
2019-02-09T07:09:08.492Z,2.90
2019-02-09T07:11:38.227Z,3.17
2019-02-09T07:14:07.975Z,3.13
2019-02-09T07:16:37.637Z,2.73
2019-02-09T07:19:07.298Z,3.30
2019-02-09T07:21:36.960Z,2.90
2019-02-09T07:24:06.631Z,3.13
2019-02-09T07:26:36.310Z,3.00
2019-02-09T07:29:06.061Z,3.20
2019-02-09T07:31:35.737Z,2.80
2019-02-09T07:34:05.417Z,2.70
2019-02-09T07:36:35.195Z,3.00
2019-02-09T07:39:07.771Z,2.97
2019-02-09T07:41:38.106Z,2.70
2019-02-09T07:44:07.825Z,2.50
2019-02-09T07:46:37.670Z,2.90
2019-02-09T07:49:07.769Z,2.60
2019-02-09T07:51:38.745Z,2.90
2019-02-09T07:54:08.464Z,3.37
2019-02-09T07:56:39.276Z,3.63
2019-02-09T07:59:09.041Z,3.83
2019-02-09T08:01:38.898Z,3.83
2019-02-09T08:04:10.128Z,4.10
2019-02-09T08:06:41.329Z,3.50
2019-02-09T08:09:12.026Z,3.30
2019-02-09T08:11:44.004Z,3.80
2019-02-09T08:14:13.799Z,3.67
2019-02-09T08:16:43.460Z,3.00
2019-02-09T08:19:13.343Z,3.60
2019-02-09T08:21:43.234Z,3.13
2019-02-09T08:24:12.993Z,3.10
2019-02-09T08:26:43.150Z,3.43
2019-02-09T08:29:13.008Z,3.80
2019-02-09T08:31:42.759Z,3.87
2019-02-09T08:34:12.490Z,3.47
2019-02-09T08:36:42.928Z,3.77
2019-02-09T08:39:12.582Z,3.90
2019-02-09T08:41:42.379Z,3.70
2019-02-09T08:44:12.112Z,3.60
2019-02-09T08:46:41.853Z,3.07
2019-02-09T08:49:11.550Z,2.80
2019-02-09T08:51:41.273Z,3.00
2019-02-09T08:54:10.939Z,2.40
2019-02-09T08:56:40.639Z,2.67
2019-02-09T08:59:10.375Z,2.63
2019-02-09T09:01:41.127Z,2.93
2019-02-09T09:04:10.968Z,3.57
2019-02-09T09:06:40.785Z,3.27
2019-02-09T09:09:10.526Z,2.93
2019-02-09T09:11:40.280Z,3.43
2019-02-09T09:14:10.031Z,3.63
2019-02-09T09:16:39.765Z,2.93
2019-02-09T09:19:09.513Z,2.70
2019-02-09T09:21:39.195Z,2.50
2019-02-09T09:24:08.873Z,2.60
2019-02-09T09:26:38.559Z,2.37
2019-02-09T09:29:08.336Z,2.83
2019-02-09T09:31:38.109Z,2.30
2019-02-09T09:34:08.828Z,2.43
2019-02-09T09:36:38.515Z,2.60
2019-02-09T09:39:08.956Z,2.17
2019-02-09T09:41:39.591Z,2.57
2019-02-09T09:44:10.493Z,3.53
2019-02-09T09:46:40.347Z,3.57
2019-02-09T09:49:10.760Z,3.80
2019-02-09T09:51:42.013Z,3.47
2019-02-09T09:54:13.392Z,3.17
2019-02-09T09:56:43.088Z,2.43
2019-02-09T09:59:13.833Z,2.53
2019-02-09T10:01:43.491Z,2.33
2019-02-09T10:04:14.941Z,2.00
2019-02-09T10:06:45.116Z,2.40
2019-02-09T10:09:14.993Z,2.23
2019-02-09T10:11:44.671Z,2.17
2019-02-09T10:14:14.392Z,1.90
2019-02-09T10:16:45.079Z,2.40
2019-02-09T10:19:15.287Z,2.10
2019-02-09T10:21:45.303Z,1.80
2019-02-09T10:24:15.100Z,1.80
2019-02-09T10:26:45.187Z,1.70
2019-02-09T10:29:15.851Z,1.50
2019-02-09T10:31:46.278Z,1.43
2019-02-09T10:34:17.218Z,1.30
2019-02-09T10:36:47.027Z,1.40
2019-02-09T10:39:17.456Z,1.50
2019-02-09T10:41:47.399Z,1.33
2019-02-09T10:44:18.191Z,1.50
2019-02-09T10:46:48.137Z,1.43
2019-02-09T10:49:17.883Z,1.80
2019-02-09T10:51:47.573Z,1.30
2019-02-09T10:54:17.331Z,1.47
2019-02-09T10:56:47.043Z,1.40
2019-02-09T10:59:16.721Z,1.23
2019-02-09T11:01:47.643Z,1.67
2019-02-09T11:04:19.641Z,1.60
2019-02-09T11:06:49.324Z,1.50
2019-02-09T11:09:21.183Z,1.40
2019-02-09T11:11:50.965Z,1.80
2019-02-09T11:14:20.680Z,1.10
2019-02-09T11:16:50.422Z,1.43
2019-02-09T11:19:21.176Z,1.43
2019-02-09T11:21:50.946Z,1.47
2019-02-09T11:24:23.167Z,1.13
2019-02-09T11:26:53.049Z,1.30
2019-02-09T11:29:22.724Z,1.47
2019-02-09T11:31:52.432Z,1.37
2019-02-09T11:34:22.159Z,1.33
2019-02-09T11:36:51.870Z,1.60
2019-02-09T11:39:21.662Z,1.07
2019-02-09T11:41:51.389Z,1.63
2019-02-09T11:44:21.141Z,1.30
2019-02-09T11:46:50.812Z,1.20
2019-02-09T11:49:20.620Z,1.37
2019-02-09T11:51:50.333Z,1.27
2019-02-09T11:54:20.080Z,1.10
2019-02-09T11:56:49.775Z,1.20
2019-02-09T11:59:21.196Z,1.00
2019-02-09T12:01:52.004Z,1.17
2019-02-09T12:04:21.872Z,1.10
2019-02-09T12:06:51.643Z,1.43
2019-02-09T12:09:21.412Z,1.37
2019-02-09T12:11:51.180Z,1.80
2019-02-09T12:14:20.942Z,1.17
2019-02-09T12:16:50.626Z,1.70
2019-02-09T12:19:20.370Z,2.07
2019-02-09T12:21:50.043Z,1.47
2019-02-09T12:24:19.792Z,1.60
2019-02-09T12:26:50.540Z,1.83
2019-02-09T12:29:20.319Z,1.63
2019-02-09T12:31:50.058Z,1.60
2019-02-09T12:34:19.824Z,1.13
2019-02-09T12:36:49.561Z,1.50
2019-02-09T12:39:19.258Z,1.63
2019-02-09T12:41:49.009Z,1.70
2019-02-09T12:44:18.739Z,1.30
2019-02-09T12:46:48.434Z,2.27
2019-02-09T12:49:18.168Z,1.63
2019-02-09T12:51:47.928Z,1.73
2019-02-09T12:54:17.665Z,1.70
2019-02-09T12:56:47.439Z,1.67
2019-02-09T12:59:17.146Z,1.20
2019-02-09T13:01:46.896Z,1.70
2019-02-09T13:04:16.592Z,1.47
2019-02-09T13:06:46.314Z,1.40
2019-02-09T13:09:16.023Z,1.70
2019-02-09T13:11:45.771Z,1.60
2019-02-09T13:14:15.465Z,1.40
2019-02-09T13:16:45.130Z,1.83
2019-02-09T13:19:14.894Z,1.30
2019-02-09T13:21:44.654Z,1.80
2019-02-09T13:24:14.333Z,1.60
2019-02-09T13:26:44.022Z,1.83
2019-02-09T13:29:13.683Z,1.30
2019-02-09T13:31:43.390Z,1.43
2019-02-09T13:34:13.183Z,1.40
2019-02-09T13:36:42.909Z,1.50
2019-02-09T13:39:12.651Z,2.00
2019-02-09T13:41:42.435Z,1.40
2019-02-09T13:44:12.202Z,1.43
2019-02-09T13:46:42.010Z,1.40
2019-02-09T13:49:12.849Z,1.73
2019-02-09T13:51:42.610Z,2.00
2019-02-09T13:54:12.298Z,1.90
2019-02-09T13:56:42.128Z,1.53
2019-02-09T13:59:12.313Z,2.00
2019-02-09T14:01:42.063Z,1.70
2019-02-09T14:04:11.776Z,1.70
2019-02-09T14:06:41.471Z,1.60
2019-02-09T14:09:14.848Z,1.50
2019-02-09T14:11:44.570Z,1.60
2019-02-09T14:14:14.548Z,1.60
2019-02-09T14:16:44.381Z,1.43
2019-02-09T14:19:14.069Z,1.60
2019-02-09T14:21:43.842Z,2.13
2019-02-09T14:24:13.592Z,1.93
2019-02-09T14:26:43.282Z,1.40
2019-02-09T14:29:12.959Z,1.30
2019-02-09T14:31:42.728Z,1.67
2019-02-09T14:34:12.489Z,1.60
2019-02-09T14:36:42.231Z,1.50
2019-02-09T14:39:11.915Z,1.80
2019-02-09T14:41:41.610Z,1.97
2019-02-09T14:44:11.372Z,1.60
2019-02-09T14:46:41.088Z,2.23
2019-02-09T14:49:10.838Z,2.20
2019-02-09T14:51:40.538Z,1.90
2019-02-09T14:54:10.311Z,2.00
2019-02-09T14:56:39.977Z,1.63
2019-02-09T14:59:09.652Z,1.47
2019-02-09T15:01:39.308Z,1.57
2019-02-09T15:04:09.001Z,1.70
2019-02-09T15:06:38.688Z,1.73
2019-02-09T15:09:08.824Z,1.77
2019-02-09T15:11:38.561Z,1.87
2019-02-09T15:14:08.303Z,1.60
2019-02-09T15:16:38.064Z,1.23
2019-02-09T15:19:07.762Z,1.13
2019-02-09T15:21:37.512Z,1.93
2019-02-09T15:24:07.178Z,1.20
2019-02-09T15:26:36.950Z,1.30
2019-02-09T15:29:06.712Z,1.60
2019-02-09T15:31:36.512Z,1.70
2019-02-09T15:34:10.270Z,1.70
2019-02-09T15:36:37.718Z,1.73
2019-02-09T15:39:08.328Z,1.40
2019-02-09T15:41:38.086Z,1.47
2019-02-09T15:44:07.851Z,1.37
2019-02-09T15:46:37.601Z,1.53
2019-02-09T15:49:07.335Z,1.87
2019-02-09T15:51:37.016Z,1.60
2019-02-09T15:54:06.771Z,1.90
2019-02-09T15:56:36.525Z,1.83
2019-02-09T15:59:06.258Z,1.60
2019-02-09T16:01:36.011Z,1.73
2019-02-09T16:04:05.730Z,1.67
2019-02-09T16:06:35.563Z,1.83
2019-02-09T16:09:07.013Z,1.73
2019-02-09T16:11:36.739Z,1.57
2019-02-09T16:14:06.472Z,1.93
2019-02-09T16:16:36.128Z,1.63
2019-02-09T16:19:05.794Z,1.93
2019-02-09T16:21:35.523Z,2.10
2019-02-09T16:24:05.278Z,1.80
2019-02-09T16:26:34.942Z,1.63
2019-02-09T16:29:04.703Z,1.90
2019-02-09T16:31:35.969Z,1.90
2019-02-09T16:34:05.943Z,1.80
2019-02-09T16:36:35.684Z,1.73
2019-02-09T16:39:07.560Z,2.13
2019-02-09T16:41:38.309Z,2.10
2019-02-09T16:44:08.116Z,1.80
2019-02-09T16:46:37.784Z,1.80
2019-02-09T16:49:07.467Z,2.20
2019-02-09T16:51:37.220Z,1.77
2019-02-09T16:54:06.901Z,2.00
2019-02-09T16:56:36.572Z,2.40
2019-02-09T16:59:06.340Z,3.33
2019-02-09T17:01:36.075Z,2.73
2019-02-09T17:04:05.909Z,2.43
2019-02-09T17:06:35.620Z,2.60
2019-02-09T17:09:07.424Z,2.53
2019-02-09T17:11:37.164Z,3.20
2019-02-09T17:14:06.854Z,3.23
2019-02-09T17:16:36.587Z,2.80
2019-02-09T17:19:06.272Z,2.70
2019-02-09T17:21:36.035Z,3.00
2019-02-09T17:24:05.775Z,3.17
2019-02-09T17:26:35.532Z,3.67
2019-02-09T17:29:05.332Z,3.93
2019-02-09T17:31:37.716Z,3.30
2019-02-09T17:34:07.457Z,3.77
2019-02-09T17:36:37.155Z,3.77
2019-02-09T17:39:06.884Z,3.87
2019-02-09T17:41:37.750Z,3.30
2019-02-09T17:44:08.624Z,3.77
2019-02-09T17:46:38.766Z,3.47
2019-02-09T17:49:08.631Z,3.37
2019-02-09T17:51:38.481Z,3.00
2019-02-09T17:54:08.236Z,2.37
2019-02-09T17:56:37.983Z,2.73
2019-02-09T17:59:07.720Z,2.57
2019-02-09T18:01:37.463Z,4.00
2019-02-09T18:04:08.376Z,3.43
2019-02-09T18:06:38.177Z,3.47
2019-02-09T18:09:08.087Z,3.87
2019-02-09T18:11:37.760Z,2.80
2019-02-09T18:14:07.425Z,2.37
2019-02-09T18:16:37.180Z,2.83
2019-02-09T18:19:06.997Z,3.37
2019-02-09T18:21:36.685Z,3.90
2019-02-09T18:24:06.381Z,5.57
2019-02-09T18:26:36.079Z,4.47
2019-02-09T18:29:05.777Z,3.50
2019-02-09T18:31:37.490Z,3.50
2019-02-09T18:34:06.908Z,4.47
2019-02-09T18:36:36.724Z,3.73
2019-02-09T18:39:09.732Z,3.90
2019-02-09T18:41:41.062Z,5.70
2019-02-09T18:44:10.821Z,5.63
2019-02-09T18:46:41.168Z,6.03
2019-02-09T18:49:11.004Z,5.83
2019-02-09T18:51:41.137Z,7.00
2019-02-09T18:54:11.041Z,10.57
2019-02-09T18:56:40.826Z,8.20
2019-02-09T18:59:10.520Z,7.10
2019-02-09T19:01:42.202Z,6.50
2019-02-09T19:04:11.774Z,6.83
2019-02-09T19:06:41.476Z,8.97
2019-02-09T19:09:11.500Z,9.77
2019-02-09T19:11:41.325Z,7.30
2019-02-09T19:14:11.259Z,6.53
2019-02-09T19:16:41.261Z,5.30
2019-02-09T19:19:12.161Z,10.30
2019-02-09T19:21:47.460Z,6.60
2019-02-09T19:24:17.223Z,6.43
2019-02-09T19:26:46.991Z,5.03
2019-02-09T19:29:16.745Z,5.47
2019-02-09T19:31:46.443Z,5.27
2019-02-09T19:34:16.117Z,6.70
2019-02-09T19:36:45.810Z,9.47
2019-02-09T19:39:15.552Z,6.47
2019-02-09T19:41:45.330Z,5.00
2019-02-09T19:44:15.151Z,4.77
2019-02-09T19:46:45.012Z,6.67
2019-02-09T19:49:16.253Z,6.10
2019-02-09T19:51:48.256Z,4.53
2019-02-09T19:54:18.896Z,4.33
2019-02-09T19:56:49.099Z,4.03
2019-02-09T19:59:20.315Z,4.23
2019-02-09T20:01:50.896Z,4.20
2019-02-09T20:04:21.946Z,5.87
2019-02-09T20:06:54.385Z,6.13
2019-02-09T20:09:24.631Z,4.57
2019-02-09T20:11:56.495Z,3.70
2019-02-09T20:14:26.825Z,4.30
2019-02-09T20:16:57.255Z,4.57
2019-02-09T20:19:28.295Z,4.47
2019-02-09T20:21:59.887Z,3.90
2019-02-09T20:24:30.582Z,4.07
2019-02-09T20:27:00.465Z,3.70
2019-02-09T20:29:32.800Z,3.40
2019-02-09T20:32:04.124Z,3.93
2019-02-09T20:34:35.336Z,3.17
2019-02-09T20:37:05.877Z,3.53
2019-02-09T20:39:36.677Z,2.90
2019-02-09T20:42:06.963Z,4.47
2019-02-09T20:44:37.571Z,3.37
2019-02-09T20:47:07.437Z,3.33
2019-02-09T20:49:37.118Z,3.37
2019-02-09T20:52:07.156Z,3.20
2019-02-09T20:54:37.082Z,3.47
2019-02-09T20:57:08.353Z,3.40
2019-02-09T20:59:38.287Z,3.60
2019-02-09T21:02:07.997Z,3.10
2019-02-09T21:04:38.963Z,3.40
2019-02-09T21:07:09.520Z,3.87
2019-02-09T21:09:40.690Z,3.83
2019-02-09T21:12:11.477Z,3.43
2019-02-09T21:14:44.202Z,3.83
2019-02-09T21:17:14.122Z,2.90
2019-02-09T21:19:44.263Z,3.93
2019-02-09T21:22:14.433Z,3.50
2019-02-09T21:24:44.584Z,3.40
2019-02-09T21:27:15.513Z,3.20
2019-02-09T21:29:45.660Z,3.63
2019-02-09T21:32:19.754Z,3.10
2019-02-09T21:34:49.481Z,3.33
2019-02-09T21:37:20.220Z,3.43
2019-02-09T21:39:50.662Z,3.20
2019-02-09T21:42:20.968Z,3.23
2019-02-09T21:44:50.847Z,3.93
2019-02-09T21:47:21.224Z,3.73
2019-02-09T21:49:52.717Z,3.60
2019-02-09T21:52:23.715Z,3.53
2019-02-09T21:54:55.415Z,3.70
2019-02-09T21:57:26.176Z,3.33
2019-02-09T21:59:55.935Z,3.63
2019-02-09T22:02:26.530Z,4.40
2019-02-09T22:04:56.293Z,3.60
2019-02-09T22:07:26.072Z,3.70
2019-02-09T22:09:55.788Z,3.90
2019-02-09T22:12:27.303Z,4.57
2019-02-09T22:14:58.558Z,3.73
2019-02-09T22:17:29.054Z,4.33
2019-02-09T22:20:10.168Z,3.97
2019-02-09T22:22:40.424Z,4.77
2019-02-09T22:25:20.448Z,4.83
2019-02-09T22:27:50.654Z,4.27
2019-02-09T22:30:26.894Z,4.83
2019-02-09T22:32:56.926Z,5.00
2019-02-09T22:35:27.553Z,5.00
2019-02-09T22:37:58.935Z,3.77
2019-02-09T22:40:33.769Z,4.03
2019-02-09T22:43:06.740Z,3.60
2019-02-09T22:45:36.559Z,3.60
2019-02-09T22:48:07.728Z,4.03
2019-02-09T22:50:39.908Z,3.20
2019-02-09T22:55:51.611Z,3.53
2019-02-09T22:58:21.340Z,3.50
2019-02-09T23:01:21.917Z,2.67
2019-02-09T23:03:57.758Z,3.13
2019-02-09T23:06:42.625Z,3.20
2019-02-09T23:09:14.878Z,3.67
2019-02-09T23:11:44.642Z,2.77
2019-02-09T23:14:14.370Z,3.17
2019-02-09T23:16:44.063Z,3.50
2019-02-09T23:19:13.805Z,3.33
2019-02-09T23:21:44.550Z,3.20
2019-02-09T23:24:14.275Z,3.70
2019-02-09T23:26:44.044Z,3.10
2019-02-09T23:29:13.785Z,3.37
2019-02-09T23:31:43.511Z,3.13
2019-02-09T23:34:13.243Z,2.90
2019-02-09T23:36:42.924Z,2.77
2019-02-09T23:39:12.590Z,2.80
2019-02-09T23:41:42.263Z,5.23
2019-02-09T23:44:12.011Z,4.73
2019-02-09T23:46:41.664Z,3.77
2019-02-09T23:49:11.346Z,3.40
2019-02-09T23:51:41.025Z,3.60
2019-02-09T23:54:10.820Z,3.73
2019-02-09T23:56:40.496Z,3.70
2019-02-09T23:59:10.178Z,3.67
